sensor_id;sensor_type;location;lat;lon;timestamp;P1;durP1;ratioP1;P2;durP2;ratioP2
10535;SDS011;5316;49.538;8.352;2023-03-11T00:01:38;1.60;;;0.60;;
10535;SDS011;5316;49.538;8.352;2023-03-11T00:04:08;0.80;;;0.70;;
10535;SDS011;5316;49.538;8.352;2023-03-11T00:06:42;2.37;;;0.60;;
10535;SDS011;5316;49.538;8.352;2023-03-11T00:09:14;1.27;;;0.50;;
10535;SDS011;5316;49.538;8.352;2023-03-11T00:11:47;1.37;;;0.53;;
10535;SDS011;5316;49.538;8.352;2023-03-11T00:14:30;0.90;;;0.70;;
10535;SDS011;5316;49.538;8.352;2023-03-11T00:16:58;1.20;;;0.70;;
10535;SDS011;5316;49.538;8.352;2023-03-11T00:19:29;1.10;;;0.63;;
10535;SDS011;5316;49.538;8.352;2023-03-11T00:22:01;2.30;;;0.60;;
10535;SDS011;5316;49.538;8.352;2023-03-11T00:24:37;1.50;;;0.50;;
10535;SDS011;5316;49.538;8.352;2023-03-11T00:27:09;2.43;;;0.97;;
10535;SDS011;5316;49.538;8.352;2023-03-11T00:29:41;3.50;;;0.80;;
10535;SDS011;5316;49.538;8.352;2023-03-11T00:32:12;1.53;;;0.70;;
10535;SDS011;5316;49.538;8.352;2023-03-11T00:34:39;2.60;;;0.70;;
10535;SDS011;5316;49.538;8.352;2023-03-11T00:37:05;4.40;;;0.70;;
10535;SDS011;5316;49.538;8.352;2023-03-11T00:39:33;2.13;;;0.53;;
10535;SDS011;5316;49.538;8.352;2023-03-11T00:42:00;2.93;;;0.70;;
10535;SDS011;5316;49.538;8.352;2023-03-11T00:44:28;1.80;;;0.80;;
10535;SDS011;5316;49.538;8.352;2023-03-11T00:47:12;1.50;;;0.73;;
10535;SDS011;5316;49.538;8.352;2023-03-11T00:49:39;3.17;;;1.63;;
10535;SDS011;5316;49.538;8.352;2023-03-11T00:52:07;0.93;;;0.60;;
10535;SDS011;5316;49.538;8.352;2023-03-11T00:54:37;1.10;;;0.70;;
10535;SDS011;5316;49.538;8.352;2023-03-11T00:57:06;1.90;;;0.80;;
10535;SDS011;5316;49.538;8.352;2023-03-11T00:59:33;1.60;;;0.70;;
10535;SDS011;5316;49.538;8.352;2023-03-11T01:02:02;4.83;;;0.70;;
10535;SDS011;5316;49.538;8.352;2023-03-11T01:04:33;3.53;;;0.80;;
10535;SDS011;5316;49.538;8.352;2023-03-11T01:07:01;3.17;;;0.87;;
10535;SDS011;5316;49.538;8.352;2023-03-11T01:09:30;2.40;;;0.90;;
10535;SDS011;5316;49.538;8.352;2023-03-11T01:11:57;1.53;;;0.70;;
10535;SDS011;5316;49.538;8.352;2023-03-11T01:14:24;2.80;;;0.77;;
10535;SDS011;5316;49.538;8.352;2023-03-11T01:16:52;0.67;;;0.60;;
10535;SDS011;5316;49.538;8.352;2023-03-11T01:19:19;1.20;;;0.60;;
10535;SDS011;5316;49.538;8.352;2023-03-11T01:21:48;1.87;;;0.60;;
10535;SDS011;5316;49.538;8.352;2023-03-11T01:24:16;2.47;;;0.70;;
10535;SDS011;5316;49.538;8.352;2023-03-11T01:26:45;2.03;;;0.60;;
10535;SDS011;5316;49.538;8.352;2023-03-11T01:29:18;1.77;;;0.70;;
10535;SDS011;5316;49.538;8.352;2023-03-11T01:31:45;1.40;;;0.60;;
10535;SDS011;5316;49.538;8.352;2023-03-11T01:34:12;1.50;;;0.50;;
10535;SDS011;5316;49.538;8.352;2023-03-11T01:36:39;3.23;;;0.80;;
10535;SDS011;5316;49.538;8.352;2023-03-11T01:39:07;1.97;;;0.73;;
10535;SDS011;5316;49.538;8.352;2023-03-11T01:41:36;1.53;;;0.60;;
10535;SDS011;5316;49.538;8.352;2023-03-11T01:44:03;0.97;;;0.60;;
10535;SDS011;5316;49.538;8.352;2023-03-11T01:46:34;2.03;;;0.60;;
10535;SDS011;5316;49.538;8.352;2023-03-11T01:49:11;2.33;;;0.70;;
10535;SDS011;5316;49.538;8.352;2023-03-11T01:51:40;5.67;;;0.83;;
10535;SDS011;5316;49.538;8.352;2023-03-11T01:54:12;7.90;;;0.90;;
10535;SDS011;5316;49.538;8.352;2023-03-11T01:56:46;3.30;;;0.80;;
10535;SDS011;5316;49.538;8.352;2023-03-11T01:59:16;2.93;;;0.63;;
10535;SDS011;5316;49.538;8.352;2023-03-11T02:01:48;3.30;;;0.87;;
10535;SDS011;5316;49.538;8.352;2023-03-11T02:04:20;1.60;;;0.60;;
10535;SDS011;5316;49.538;8.352;2023-03-11T02:06:48;1.90;;;0.80;;
10535;SDS011;5316;49.538;8.352;2023-03-11T02:09:17;0.97;;;0.63;;
10535;SDS011;5316;49.538;8.352;2023-03-11T02:11:45;1.47;;;0.70;;
10535;SDS011;5316;49.538;8.352;2023-03-11T02:14:13;3.43;;;0.70;;
10535;SDS011;5316;49.538;8.352;2023-03-11T02:16:42;3.73;;;0.70;;
10535;SDS011;5316;49.538;8.352;2023-03-11T02:19:11;2.57;;;0.70;;
10535;SDS011;5316;49.538;8.352;2023-03-11T02:21:48;4.63;;;0.90;;
10535;SDS011;5316;49.538;8.352;2023-03-11T02:24:18;1.57;;;0.60;;
10535;SDS011;5316;49.538;8.352;2023-03-11T02:26:55;2.83;;;0.80;;
10535;SDS011;5316;49.538;8.352;2023-03-11T02:29:26;2.50;;;0.80;;
10535;SDS011;5316;49.538;8.352;2023-03-11T03:55:56;2.20;;;0.80;;
10535;SDS011;5316;49.538;8.352;2023-03-11T04:00:35;3.10;;;0.87;;
10535;SDS011;5316;49.538;8.352;2023-03-11T04:14:43;3.13;;;0.80;;
10535;SDS011;5316;49.538;8.352;2023-03-11T04:53:36;3.50;;;0.90;;
10535;SDS011;5316;49.538;8.352;2023-03-11T04:56:52;4.13;;;1.20;;
10535;SDS011;5316;49.538;8.352;2023-03-11T05:00:16;3.77;;;0.80;;
10535;SDS011;5316;49.538;8.352;2023-03-11T06:44:54;4.83;;;0.90;;
10535;SDS011;5316;49.538;8.352;2023-03-11T06:51:37;4.50;;;1.10;;
10535;SDS011;5316;49.538;8.352;2023-03-11T06:53:56;6.20;;;1.10;;
10535;SDS011;5316;49.538;8.352;2023-03-11T07:03:44;6.53;;;1.30;;
10535;SDS011;5316;49.538;8.352;2023-03-11T07:10:26;4.50;;;1.77;;
10535;SDS011;5316;49.538;8.352;2023-03-11T08:07:46;5.40;;;1.53;;
10535;SDS011;5316;49.538;8.352;2023-03-11T08:10:14;3.93;;;1.07;;
10535;SDS011;5316;49.538;8.352;2023-03-11T08:12:41;5.23;;;1.20;;
10535;SDS011;5316;49.538;8.352;2023-03-11T08:15:09;4.07;;;1.23;;
10535;SDS011;5316;49.538;8.352;2023-03-11T08:17:38;3.57;;;1.60;;
10535;SDS011;5316;49.538;8.352;2023-03-11T08:20:06;4.50;;;1.30;;
10535;SDS011;5316;49.538;8.352;2023-03-11T08:22:34;4.40;;;1.57;;
10535;SDS011;5316;49.538;8.352;2023-03-11T08:25:03;7.60;;;2.50;;
10535;SDS011;5316;49.538;8.352;2023-03-11T08:27:34;4.53;;;1.23;;
10535;SDS011;5316;49.538;8.352;2023-03-11T08:30:03;4.03;;;1.10;;
10535;SDS011;5316;49.538;8.352;2023-03-11T08:32:32;4.93;;;1.30;;
10535;SDS011;5316;49.538;8.352;2023-03-11T08:35:02;3.60;;;1.13;;
10535;SDS011;5316;49.538;8.352;2023-03-11T08:37:30;4.87;;;1.13;;
10535;SDS011;5316;49.538;8.352;2023-03-11T08:40:01;8.20;;;1.07;;
10535;SDS011;5316;49.538;8.352;2023-03-11T08:42:30;5.63;;;1.03;;
10535;SDS011;5316;49.538;8.352;2023-03-11T08:44:57;5.30;;;1.17;;
10535;SDS011;5316;49.538;8.352;2023-03-11T08:47:24;8.13;;;1.53;;
10535;SDS011;5316;49.538;8.352;2023-03-11T08:49:52;4.80;;;1.37;;
10535;SDS011;5316;49.538;8.352;2023-03-11T08:52:23;3.27;;;0.93;;
10535;SDS011;5316;49.538;8.352;2023-03-11T08:54:50;3.67;;;1.30;;
10535;SDS011;5316;49.538;8.352;2023-03-11T08:57:19;2.27;;;0.90;;
10535;SDS011;5316;49.538;8.352;2023-03-11T08:59:46;5.47;;;1.33;;
10535;SDS011;5316;49.538;8.352;2023-03-11T09:02:13;2.53;;;0.80;;
10535;SDS011;5316;49.538;8.352;2023-03-11T09:04:40;2.93;;;0.80;;
10535;SDS011;5316;49.538;8.352;2023-03-11T09:07:07;6.57;;;0.90;;
10535;SDS011;5316;49.538;8.352;2023-03-11T09:09:36;2.47;;;0.80;;
10535;SDS011;5316;49.538;8.352;2023-03-11T09:12:03;2.37;;;1.03;;
10535;SDS011;5316;49.538;8.352;2023-03-11T09:14:33;1.60;;;0.90;;
10535;SDS011;5316;49.538;8.352;2023-03-11T09:17:01;3.97;;;0.80;;
10535;SDS011;5316;49.538;8.352;2023-03-11T09:19:28;3.03;;;1.00;;
10535;SDS011;5316;49.538;8.352;2023-03-11T09:21:55;3.33;;;0.93;;
10535;SDS011;5316;49.538;8.352;2023-03-11T09:24:24;3.63;;;0.83;;
10535;SDS011;5316;49.538;8.352;2023-03-11T09:26:51;5.60;;;2.53;;
10535;SDS011;5316;49.538;8.352;2023-03-11T09:29:18;4.73;;;2.47;;
10535;SDS011;5316;49.538;8.352;2023-03-11T09:31:47;4.20;;;0.80;;
10535;SDS011;5316;49.538;8.352;2023-03-11T09:34:14;3.10;;;0.73;;
10535;SDS011;5316;49.538;8.352;2023-03-11T09:36:41;3.90;;;0.83;;
10535;SDS011;5316;49.538;8.352;2023-03-11T09:39:08;1.80;;;0.67;;
10535;SDS011;5316;49.538;8.352;2023-03-11T09:41:37;3.73;;;0.60;;
10535;SDS011;5316;49.538;8.352;2023-03-11T09:44:11;3.33;;;1.00;;
10535;SDS011;5316;49.538;8.352;2023-03-11T09:46:54;2.47;;;0.80;;
10535;SDS011;5316;49.538;8.352;2023-03-11T09:49:47;3.17;;;1.10;;
10535;SDS011;5316;49.538;8.352;2023-03-11T09:52:37;4.70;;;0.80;;
10535;SDS011;5316;49.538;8.352;2023-03-11T09:55:15;2.80;;;0.80;;
10535;SDS011;5316;49.538;8.352;2023-03-11T09:57:51;3.27;;;0.90;;
10535;SDS011;5316;49.538;8.352;2023-03-11T10:00:22;2.60;;;0.80;;
10535;SDS011;5316;49.538;8.352;2023-03-11T10:02:51;3.27;;;0.60;;
10535;SDS011;5316;49.538;8.352;2023-03-11T10:05:19;0.90;;;0.60;;
10535;SDS011;5316;49.538;8.352;2023-03-11T10:07:50;1.80;;;0.80;;
10535;SDS011;5316;49.538;8.352;2023-03-11T10:10:23;3.63;;;0.73;;
10535;SDS011;5316;49.538;8.352;2023-03-11T10:12:56;1.43;;;0.90;;
10535;SDS011;5316;49.538;8.352;2023-03-11T10:15:31;2.67;;;0.80;;
10535;SDS011;5316;49.538;8.352;2023-03-11T10:21:22;3.67;;;0.93;;
10535;SDS011;5316;49.538;8.352;2023-03-11T10:24:04;2.40;;;0.70;;
10535;SDS011;5316;49.538;8.352;2023-03-11T10:26:42;6.33;;;0.93;;
10535;SDS011;5316;49.538;8.352;2023-03-11T10:29:13;3.30;;;0.87;;
10535;SDS011;5316;49.538;8.352;2023-03-11T10:31:45;3.43;;;0.80;;
10535;SDS011;5316;49.538;8.352;2023-03-11T10:34:19;2.20;;;0.70;;
10535;SDS011;5316;49.538;8.352;2023-03-11T10:36:52;2.20;;;0.80;;
10535;SDS011;5316;49.538;8.352;2023-03-11T10:39:24;5.43;;;0.80;;
10535;SDS011;5316;49.538;8.352;2023-03-11T10:41:52;4.93;;;0.80;;
10535;SDS011;5316;49.538;8.352;2023-03-11T10:44:21;2.50;;;0.80;;
10535;SDS011;5316;49.538;8.352;2023-03-11T10:46:53;3.80;;;0.70;;
10535;SDS011;5316;49.538;8.352;2023-03-11T10:49:20;5.60;;;1.07;;
10535;SDS011;5316;49.538;8.352;2023-03-11T10:51:48;2.90;;;0.70;;
10535;SDS011;5316;49.538;8.352;2023-03-11T10:54:22;2.03;;;0.90;;
10535;SDS011;5316;49.538;8.352;2023-03-11T10:56:55;1.97;;;0.80;;
10535;SDS011;5316;49.538;8.352;2023-03-11T10:59:24;5.43;;;0.90;;
10535;SDS011;5316;49.538;8.352;2023-03-11T11:01:54;5.67;;;0.93;;
10535;SDS011;5316;49.538;8.352;2023-03-11T11:04:25;6.10;;;1.00;;
10535;SDS011;5316;49.538;8.352;2023-03-11T11:06:54;3.27;;;1.20;;
10535;SDS011;5316;49.538;8.352;2023-03-11T11:09:22;2.40;;;1.10;;
10535;SDS011;5316;49.538;8.352;2023-03-11T11:12:02;2.10;;;1.00;;
10535;SDS011;5316;49.538;8.352;2023-03-11T11:14:41;3.83;;;0.70;;
10535;SDS011;5316;49.538;8.352;2023-03-11T11:17:14;0.87;;;0.60;;
10535;SDS011;5316;49.538;8.352;2023-03-11T11:19:48;3.10;;;0.63;;
10535;SDS011;5316;49.538;8.352;2023-03-11T11:22:16;2.77;;;0.80;;
10535;SDS011;5316;49.538;8.352;2023-03-11T11:24:47;2.17;;;0.80;;
10535;SDS011;5316;49.538;8.352;2023-03-11T11:27:17;3.80;;;0.70;;
10535;SDS011;5316;49.538;8.352;2023-03-11T11:29:45;3.70;;;0.70;;
10535;SDS011;5316;49.538;8.352;2023-03-11T11:32:17;3.57;;;0.87;;
10535;SDS011;5316;49.538;8.352;2023-03-11T11:34:53;2.23;;;0.90;;
10535;SDS011;5316;49.538;8.352;2023-03-11T11:37:23;5.13;;;1.50;;
10535;SDS011;5316;49.538;8.352;2023-03-11T11:39:58;2.13;;;0.83;;
10535;SDS011;5316;49.538;8.352;2023-03-11T11:42:34;3.40;;;0.63;;
10535;SDS011;5316;49.538;8.352;2023-03-11T11:45:03;3.87;;;0.80;;
10535;SDS011;5316;49.538;8.352;2023-03-11T11:47:35;3.43;;;1.20;;
10535;SDS011;5316;49.538;8.352;2023-03-11T11:50:11;3.23;;;0.80;;
10535;SDS011;5316;49.538;8.352;2023-03-11T11:52:52;3.40;;;0.83;;
10535;SDS011;5316;49.538;8.352;2023-03-11T11:55:25;1.57;;;0.80;;
10535;SDS011;5316;49.538;8.352;2023-03-11T11:57:54;2.07;;;0.70;;
10535;SDS011;5316;49.538;8.352;2023-03-11T12:00:22;2.33;;;0.70;;
10535;SDS011;5316;49.538;8.352;2023-03-11T12:03:03;1.77;;;0.67;;
10535;SDS011;5316;49.538;8.352;2023-03-11T12:05:42;1.30;;;0.77;;
10535;SDS011;5316;49.538;8.352;2023-03-11T12:08:15;2.10;;;0.60;;
10535;SDS011;5316;49.538;8.352;2023-03-11T12:10:48;2.43;;;0.80;;
10535;SDS011;5316;49.538;8.352;2023-03-11T12:13:23;4.77;;;1.40;;
10535;SDS011;5316;49.538;8.352;2023-03-11T12:16:08;3.97;;;1.33;;
10535;SDS011;5316;49.538;8.352;2023-03-11T12:18:44;1.50;;;0.73;;
10535;SDS011;5316;49.538;8.352;2023-03-11T12:21:19;2.03;;;0.87;;
10535;SDS011;5316;49.538;8.352;2023-03-11T12:24:02;2.50;;;1.00;;
10535;SDS011;5316;49.538;8.352;2023-03-11T12:26:40;2.10;;;1.00;;
10535;SDS011;5316;49.538;8.352;2023-03-11T12:29:11;1.47;;;0.77;;
10535;SDS011;5316;49.538;8.352;2023-03-11T12:31:48;1.83;;;0.70;;
10535;SDS011;5316;49.538;8.352;2023-03-11T12:34:15;1.50;;;0.60;;
10535;SDS011;5316;49.538;8.352;2023-03-11T12:36:46;4.13;;;1.00;;
10535;SDS011;5316;49.538;8.352;2023-03-11T12:39:21;2.03;;;0.70;;
10535;SDS011;5316;49.538;8.352;2023-03-11T12:42:00;2.93;;;0.73;;
10535;SDS011;5316;49.538;8.352;2023-03-11T12:44:41;2.07;;;0.60;;
10535;SDS011;5316;49.538;8.352;2023-03-11T12:52:56;4.73;;;1.03;;
10535;SDS011;5316;49.538;8.352;2023-03-11T12:55:30;2.87;;;1.20;;
10535;SDS011;5316;49.538;8.352;2023-03-11T13:01:16;1.30;;;0.70;;
10535;SDS011;5316;49.538;8.352;2023-03-11T13:04:13;4.77;;;0.93;;
10535;SDS011;5316;49.538;8.352;2023-03-11T13:07:02;4.07;;;1.80;;
10535;SDS011;5316;49.538;8.352;2023-03-11T13:09:58;1.97;;;0.70;;
10535;SDS011;5316;49.538;8.352;2023-03-11T13:12:39;3.37;;;0.70;;
10535;SDS011;5316;49.538;8.352;2023-03-11T13:20:55;1.87;;;0.70;;
10535;SDS011;5316;49.538;8.352;2023-03-11T13:23:24;3.40;;;0.70;;
10535;SDS011;5316;49.538;8.352;2023-03-11T13:28:50;3.23;;;0.80;;
10535;SDS011;5316;49.538;8.352;2023-03-11T13:31:35;2.23;;;0.70;;
10535;SDS011;5316;49.538;8.352;2023-03-11T13:34:14;3.93;;;0.90;;
10535;SDS011;5316;49.538;8.352;2023-03-11T13:36:47;2.20;;;0.70;;
10535;SDS011;5316;49.538;8.352;2023-03-11T13:39:21;2.73;;;1.10;;
10535;SDS011;5316;49.538;8.352;2023-03-11T13:41:56;1.90;;;0.80;;
10535;SDS011;5316;49.538;8.352;2023-03-11T13:44:27;2.60;;;1.00;;
10535;SDS011;5316;49.538;8.352;2023-03-11T13:46:59;4.00;;;0.70;;
10535;SDS011;5316;49.538;8.352;2023-03-11T13:49:31;3.00;;;1.00;;
10535;SDS011;5316;49.538;8.352;2023-03-11T13:52:02;3.03;;;0.80;;
10535;SDS011;5316;49.538;8.352;2023-03-11T13:54:38;2.53;;;0.80;;
10535;SDS011;5316;49.538;8.352;2023-03-11T13:57:20;4.60;;;0.80;;
10535;SDS011;5316;49.538;8.352;2023-03-11T13:59:51;2.00;;;0.87;;
10535;SDS011;5316;49.538;8.352;2023-03-11T14:02:21;2.70;;;0.70;;
10535;SDS011;5316;49.538;8.352;2023-03-11T14:04:50;3.57;;;0.90;;
10535;SDS011;5316;49.538;8.352;2023-03-11T14:07:23;3.37;;;0.87;;
10535;SDS011;5316;49.538;8.352;2023-03-11T14:12:41;2.60;;;1.30;;
10535;SDS011;5316;49.538;8.352;2023-03-11T14:15:08;4.80;;;0.77;;
10535;SDS011;5316;49.538;8.352;2023-03-11T14:17:42;2.67;;;0.70;;
10535;SDS011;5316;49.538;8.352;2023-03-11T14:20:11;2.10;;;0.80;;
10535;SDS011;5316;49.538;8.352;2023-03-11T14:26:06;1.10;;;0.77;;
10535;SDS011;5316;49.538;8.352;2023-03-11T14:28:35;1.37;;;0.70;;
10535;SDS011;5316;49.538;8.352;2023-03-11T14:31:18;2.20;;;0.77;;
10535;SDS011;5316;49.538;8.352;2023-03-11T14:33:55;2.97;;;0.90;;
10535;SDS011;5316;49.538;8.352;2023-03-11T14:36:28;1.90;;;0.90;;
10535;SDS011;5316;49.538;8.352;2023-03-11T14:38:55;2.80;;;1.10;;
10535;SDS011;5316;49.538;8.352;2023-03-11T14:41:31;5.33;;;0.90;;
10535;SDS011;5316;49.538;8.352;2023-03-11T14:43:59;2.97;;;0.90;;
10535;SDS011;5316;49.538;8.352;2023-03-11T14:46:35;2.43;;;1.10;;
10535;SDS011;5316;49.538;8.352;2023-03-11T14:49:04;3.23;;;1.10;;
10535;SDS011;5316;49.538;8.352;2023-03-11T14:51:33;2.10;;;0.97;;
10535;SDS011;5316;49.538;8.352;2023-03-11T14:54:03;1.57;;;0.70;;
10535;SDS011;5316;49.538;8.352;2023-03-11T14:56:34;4.07;;;1.20;;
10535;SDS011;5316;49.538;8.352;2023-03-11T14:59:05;3.07;;;0.90;;
10535;SDS011;5316;49.538;8.352;2023-03-11T15:01:38;2.77;;;0.97;;
10535;SDS011;5316;49.538;8.352;2023-03-11T15:04:09;3.87;;;0.80;;
10535;SDS011;5316;49.538;8.352;2023-03-11T15:06:39;2.20;;;0.97;;
10535;SDS011;5316;49.538;8.352;2023-03-11T15:09:09;3.23;;;0.80;;
10535;SDS011;5316;49.538;8.352;2023-03-11T15:11:45;2.13;;;0.97;;
10535;SDS011;5316;49.538;8.352;2023-03-11T15:14:17;5.17;;;1.10;;
10535;SDS011;5316;49.538;8.352;2023-03-11T15:16:47;3.77;;;0.70;;
10535;SDS011;5316;49.538;8.352;2023-03-11T15:19:23;4.73;;;2.03;;
10535;SDS011;5316;49.538;8.352;2023-03-11T15:21:57;5.30;;;0.90;;
10535;SDS011;5316;49.538;8.352;2023-03-11T15:24:29;1.43;;;0.80;;
10535;SDS011;5316;49.538;8.352;2023-03-11T15:26:59;2.83;;;1.00;;
10535;SDS011;5316;49.538;8.352;2023-03-11T15:29:28;4.23;;;0.93;;
10535;SDS011;5316;49.538;8.352;2023-03-11T15:31:57;4.80;;;0.80;;
10535;SDS011;5316;49.538;8.352;2023-03-11T15:34:27;1.50;;;1.00;;
10535;SDS011;5316;49.538;8.352;2023-03-11T15:36:57;1.47;;;1.00;;
10535;SDS011;5316;49.538;8.352;2023-03-11T15:39:41;2.93;;;0.97;;
10535;SDS011;5316;49.538;8.352;2023-03-11T15:42:12;3.20;;;0.90;;
10535;SDS011;5316;49.538;8.352;2023-03-11T15:44:42;4.93;;;1.50;;
10535;SDS011;5316;49.538;8.352;2023-03-11T15:47:20;4.43;;;1.20;;
10535;SDS011;5316;49.538;8.352;2023-03-11T15:49:49;2.43;;;0.90;;
10535;SDS011;5316;49.538;8.352;2023-03-11T15:52:17;0.77;;;0.77;;
10535;SDS011;5316;49.538;8.352;2023-03-11T15:54:44;3.70;;;1.00;;
10535;SDS011;5316;49.538;8.352;2023-03-11T15:57:13;2.07;;;0.80;;
10535;SDS011;5316;49.538;8.352;2023-03-11T15:59:46;1.47;;;0.80;;
10535;SDS011;5316;49.538;8.352;2023-03-11T16:02:18;1.63;;;0.73;;
10535;SDS011;5316;49.538;8.352;2023-03-11T16:04:47;2.93;;;1.00;;
10535;SDS011;5316;49.538;8.352;2023-03-11T16:07:15;2.77;;;0.80;;
10535;SDS011;5316;49.538;8.352;2023-03-11T16:09:43;2.13;;;0.90;;
10535;SDS011;5316;49.538;8.352;2023-03-11T16:12:13;1.77;;;0.70;;
10535;SDS011;5316;49.538;8.352;2023-03-11T16:14:42;6.23;;;2.33;;
10535;SDS011;5316;49.538;8.352;2023-03-11T16:17:09;3.83;;;1.23;;
10535;SDS011;5316;49.538;8.352;2023-03-11T16:19:38;4.47;;;1.10;;
10535;SDS011;5316;49.538;8.352;2023-03-11T16:22:08;2.83;;;1.00;;
10535;SDS011;5316;49.538;8.352;2023-03-11T16:24:41;2.13;;;0.80;;
10535;SDS011;5316;49.538;8.352;2023-03-11T16:27:24;2.73;;;0.77;;
10535;SDS011;5316;49.538;8.352;2023-03-11T16:29:51;2.03;;;0.80;;
10535;SDS011;5316;49.538;8.352;2023-03-11T16:32:18;3.07;;;1.00;;
10535;SDS011;5316;49.538;8.352;2023-03-11T16:34:45;4.10;;;1.30;;
10535;SDS011;5316;49.538;8.352;2023-03-11T16:37:14;2.20;;;0.90;;
10535;SDS011;5316;49.538;8.352;2023-03-11T16:39:44;2.60;;;0.80;;
10535;SDS011;5316;49.538;8.352;2023-03-11T16:42:12;4.40;;;0.80;;
10535;SDS011;5316;49.538;8.352;2023-03-11T16:44:39;3.30;;;0.80;;
10535;SDS011;5316;49.538;8.352;2023-03-11T16:47:06;1.70;;;0.80;;
10535;SDS011;5316;49.538;8.352;2023-03-11T16:49:32;3.37;;;0.70;;
10535;SDS011;5316;49.538;8.352;2023-03-11T16:51:59;4.23;;;1.07;;
10535;SDS011;5316;49.538;8.352;2023-03-11T16:54:28;3.80;;;1.07;;
10535;SDS011;5316;49.538;8.352;2023-03-11T16:56:55;3.80;;;1.13;;
10535;SDS011;5316;49.538;8.352;2023-03-11T16:59:21;4.97;;;1.30;;
10535;SDS011;5316;49.538;8.352;2023-03-11T17:01:48;5.30;;;1.53;;
10535;SDS011;5316;49.538;8.352;2023-03-11T17:04:16;2.77;;;1.10;;
10535;SDS011;5316;49.538;8.352;2023-03-11T17:06:43;3.00;;;0.87;;
10535;SDS011;5316;49.538;8.352;2023-03-11T17:09:10;4.83;;;1.07;;
10535;SDS011;5316;49.538;8.352;2023-03-11T17:11:39;3.77;;;0.93;;
10535;SDS011;5316;49.538;8.352;2023-03-11T17:14:05;9.50;;;4.80;;
10535;SDS011;5316;49.538;8.352;2023-03-11T17:16:33;5.27;;;1.77;;
10535;SDS011;5316;49.538;8.352;2023-03-11T17:19:00;2.80;;;1.00;;
10535;SDS011;5316;49.538;8.352;2023-03-11T17:21:27;13.27;;;6.30;;
10535;SDS011;5316;49.538;8.352;2023-03-11T17:23:54;3.73;;;1.00;;
10535;SDS011;5316;49.538;8.352;2023-03-11T17:26:23;3.80;;;1.10;;
10535;SDS011;5316;49.538;8.352;2023-03-11T17:28:53;2.07;;;1.07;;
10535;SDS011;5316;49.538;8.352;2023-03-11T17:31:20;4.70;;;1.30;;
10535;SDS011;5316;49.538;8.352;2023-03-11T17:33:47;1.47;;;0.80;;
10535;SDS011;5316;49.538;8.352;2023-03-11T17:36:15;3.00;;;1.20;;
10535;SDS011;5316;49.538;8.352;2023-03-11T17:38:42;3.07;;;1.13;;
10535;SDS011;5316;49.538;8.352;2023-03-11T17:41:12;2.60;;;1.33;;
10535;SDS011;5316;49.538;8.352;2023-03-11T17:43:40;3.80;;;1.67;;
10535;SDS011;5316;49.538;8.352;2023-03-11T17:46:12;2.63;;;1.50;;
10535;SDS011;5316;49.538;8.352;2023-03-11T17:48:40;4.10;;;1.20;;
10535;SDS011;5316;49.538;8.352;2023-03-11T17:51:08;2.47;;;1.20;;
10535;SDS011;5316;49.538;8.352;2023-03-11T17:53:37;2.37;;;1.20;;
10535;SDS011;5316;49.538;8.352;2023-03-11T17:56:06;3.23;;;1.30;;
10535;SDS011;5316;49.538;8.352;2023-03-11T17:58:33;4.30;;;1.57;;
10535;SDS011;5316;49.538;8.352;2023-03-11T18:01:02;3.83;;;1.50;;
10535;SDS011;5316;49.538;8.352;2023-03-11T18:03:31;3.03;;;1.40;;
10535;SDS011;5316;49.538;8.352;2023-03-11T18:06:00;4.80;;;1.50;;
10535;SDS011;5316;49.538;8.352;2023-03-11T18:08:29;3.57;;;1.77;;
10535;SDS011;5316;49.538;8.352;2023-03-11T18:11:00;3.87;;;1.30;;
10535;SDS011;5316;49.538;8.352;2023-03-11T18:13:29;3.00;;;1.73;;
10535;SDS011;5316;49.538;8.352;2023-03-11T18:15:57;3.33;;;1.50;;
10535;SDS011;5316;49.538;8.352;2023-03-11T18:18:28;3.73;;;1.70;;
10535;SDS011;5316;49.538;8.352;2023-03-11T18:21:00;3.67;;;2.13;;
10535;SDS011;5316;49.538;8.352;2023-03-11T18:23:28;6.27;;;2.20;;
10535;SDS011;5316;49.538;8.352;2023-03-11T18:25:57;2.63;;;1.20;;
10535;SDS011;5316;49.538;8.352;2023-03-11T18:28:25;6.13;;;1.63;;
10535;SDS011;5316;49.538;8.352;2023-03-11T18:30:53;2.97;;;1.50;;
10535;SDS011;5316;49.538;8.352;2023-03-11T18:33:22;1.67;;;1.30;;
10535;SDS011;5316;49.538;8.352;2023-03-11T18:35:51;3.37;;;1.67;;
10535;SDS011;5316;49.538;8.352;2023-03-11T18:38:19;5.47;;;1.60;;
10535;SDS011;5316;49.538;8.352;2023-03-11T18:40:56;3.77;;;1.30;;
10535;SDS011;5316;49.538;8.352;2023-03-11T18:43:24;4.07;;;1.40;;
10535;SDS011;5316;49.538;8.352;2023-03-11T18:45:51;3.87;;;1.30;;
10535;SDS011;5316;49.538;8.352;2023-03-11T18:48:18;1.90;;;1.20;;
10535;SDS011;5316;49.538;8.352;2023-03-11T18:50:49;2.87;;;1.20;;
10535;SDS011;5316;49.538;8.352;2023-03-11T18:53:22;3.97;;;1.10;;
10535;SDS011;5316;49.538;8.352;2023-03-11T18:55:50;4.00;;;1.40;;
10535;SDS011;5316;49.538;8.352;2023-03-11T18:58:23;2.80;;;1.10;;
10535;SDS011;5316;49.538;8.352;2023-03-11T19:00:50;4.23;;;1.43;;
10535;SDS011;5316;49.538;8.352;2023-03-11T19:03:18;5.43;;;1.80;;
10535;SDS011;5316;49.538;8.352;2023-03-11T19:05:47;3.60;;;1.60;;
10535;SDS011;5316;49.538;8.352;2023-03-11T19:08:20;7.23;;;2.03;;
10535;SDS011;5316;49.538;8.352;2023-03-11T19:10:48;5.07;;;1.90;;
10535;SDS011;5316;49.538;8.352;2023-03-11T19:13:15;5.07;;;2.57;;
10535;SDS011;5316;49.538;8.352;2023-03-11T19:15:44;7.70;;;4.33;;
10535;SDS011;5316;49.538;8.352;2023-03-11T19:18:12;9.93;;;3.73;;
10535;SDS011;5316;49.538;8.352;2023-03-11T19:20:39;6.50;;;3.50;;
10535;SDS011;5316;49.538;8.352;2023-03-11T19:23:09;3.63;;;2.80;;
10535;SDS011;5316;49.538;8.352;2023-03-11T19:28:21;7.43;;;3.43;;
10535;SDS011;5316;49.538;8.352;2023-03-11T19:30:49;7.50;;;3.60;;
10535;SDS011;5316;49.538;8.352;2023-03-11T19:36:23;11.87;;;5.57;;
10535;SDS011;5316;49.538;8.352;2023-03-11T19:38:51;13.33;;;5.30;;
10535;SDS011;5316;49.538;8.352;2023-03-11T19:41:19;12.10;;;5.27;;
10535;SDS011;5316;49.538;8.352;2023-03-11T19:46:24;10.43;;;4.67;;
10535;SDS011;5316;49.538;8.352;2023-03-11T19:48:51;9.40;;;4.37;;
10535;SDS011;5316;49.538;8.352;2023-03-11T19:51:20;6.67;;;4.80;;
10535;SDS011;5316;49.538;8.352;2023-03-11T19:53:47;9.57;;;5.20;;
10535;SDS011;5316;49.538;8.352;2023-03-11T19:56:14;8.43;;;5.10;;
10535;SDS011;5316;49.538;8.352;2023-03-11T19:58:43;7.47;;;4.73;;
10535;SDS011;5316;49.538;8.352;2023-03-11T20:01:16;7.83;;;4.43;;
10535;SDS011;5316;49.538;8.352;2023-03-11T20:03:45;10.07;;;4.83;;
10535;SDS011;5316;49.538;8.352;2023-03-11T20:06:12;21.70;;;10.10;;
10535;SDS011;5316;49.538;8.352;2023-03-11T20:08:42;8.77;;;5.77;;
10535;SDS011;5316;49.538;8.352;2023-03-11T20:11:09;10.63;;;5.33;;
10535;SDS011;5316;49.538;8.352;2023-03-11T20:13:36;6.27;;;4.47;;
10535;SDS011;5316;49.538;8.352;2023-03-11T20:16:07;7.77;;;4.30;;
10535;SDS011;5316;49.538;8.352;2023-03-11T20:18:35;10.73;;;4.10;;
10535;SDS011;5316;49.538;8.352;2023-03-11T20:21:08;8.60;;;4.10;;
10535;SDS011;5316;49.538;8.352;2023-03-11T20:23:39;7.37;;;3.90;;
10535;SDS011;5316;49.538;8.352;2023-03-11T20:29:02;9.20;;;4.53;;
10535;SDS011;5316;49.538;8.352;2023-03-11T20:31:32;7.33;;;4.23;;
10535;SDS011;5316;49.538;8.352;2023-03-11T20:34:01;8.70;;;4.50;;
10535;SDS011;5316;49.538;8.352;2023-03-11T20:36:35;8.20;;;4.33;;
10535;SDS011;5316;49.538;8.352;2023-03-11T20:39:03;11.27;;;5.50;;
10535;SDS011;5316;49.538;8.352;2023-03-11T20:41:32;9.93;;;4.93;;
10535;SDS011;5316;49.538;8.352;2023-03-11T20:44:02;12.00;;;4.70;;
10535;SDS011;5316;49.538;8.352;2023-03-11T20:46:33;6.93;;;4.43;;
10535;SDS011;5316;49.538;8.352;2023-03-11T20:49:19;13.97;;;6.57;;
10535;SDS011;5316;49.538;8.352;2023-03-11T20:51:48;10.63;;;6.07;;
10535;SDS011;5316;49.538;8.352;2023-03-11T20:54:15;10.10;;;6.40;;
10535;SDS011;5316;49.538;8.352;2023-03-11T20:56:42;10.30;;;6.03;;
10535;SDS011;5316;49.538;8.352;2023-03-11T20:59:24;9.87;;;5.67;;
10535;SDS011;5316;49.538;8.352;2023-03-11T21:01:53;10.40;;;5.63;;
10535;SDS011;5316;49.538;8.352;2023-03-11T21:04:25;12.90;;;6.30;;
10535;SDS011;5316;49.538;8.352;2023-03-11T21:10:01;12.67;;;6.50;;
10535;SDS011;5316;49.538;8.352;2023-03-11T21:12:30;15.53;;;7.33;;